sensor_id;sensor_type;location;lat;lon;timestamp;temperature;humidity
5457;DHT22;2751;49.802;9.944;2022-08-19T00:00:50;22.10;99.90
5457;DHT22;2751;49.802;9.944;2022-08-19T00:03:17;22.10;99.90
5457;DHT22;2751;49.802;9.944;2022-08-19T00:05:45;22.10;99.90
5457;DHT22;2751;49.802;9.944;2022-08-19T00:08:12;22.10;99.90
5457;DHT22;2751;49.802;9.944;2022-08-19T00:10:39;22.00;99.90
5457;DHT22;2751;49.802;9.944;2022-08-19T00:13:06;22.00;99.90
5457;DHT22;2751;49.802;9.944;2022-08-19T00:15:33;21.90;99.90
5457;DHT22;2751;49.802;9.944;2022-08-19T00:18:00;21.90;99.90
5457;DHT22;2751;49.802;9.944;2022-08-19T00:20:27;21.80;99.90
5457;DHT22;2751;49.802;9.944;2022-08-19T00:22:55;21.80;99.90
5457;DHT22;2751;49.802;9.944;2022-08-19T00:25:22;21.70;99.90
5457;DHT22;2751;49.802;9.944;2022-08-19T00:27:49;21.60;99.90
5457;DHT22;2751;49.802;9.944;2022-08-19T00:30:16;21.60;99.90
5457;DHT22;2751;49.802;9.944;2022-08-19T00:32:43;21.50;99.90
5457;DHT22;2751;49.802;9.944;2022-08-19T00:35:11;21.50;99.90
5457;DHT22;2751;49.802;9.944;2022-08-19T00:37:38;21.50;99.90
5457;DHT22;2751;49.802;9.944;2022-08-19T00:40:12;21.40;99.90
5457;DHT22;2751;49.802;9.944;2022-08-19T00:42:39;21.40;99.90
5457;DHT22;2751;49.802;9.944;2022-08-19T00:45:10;21.40;99.90
5457;DHT22;2751;49.802;9.944;2022-08-19T00:47:38;21.40;99.90
5457;DHT22;2751;49.802;9.944;2022-08-19T00:50:06;21.40;99.90
5457;DHT22;2751;49.802;9.944;2022-08-19T00:52:37;21.40;99.90
5457;DHT22;2751;49.802;9.944;2022-08-19T00:55:10;21.30;99.90
5457;DHT22;2751;49.802;9.944;2022-08-19T00:57:43;21.30;99.90
5457;DHT22;2751;49.802;9.944;2022-08-19T01:00:14;21.30;99.90
5457;DHT22;2751;49.802;9.944;2022-08-19T01:02:42;21.20;99.90
5457;DHT22;2751;49.802;9.944;2022-08-19T01:05:11;21.20;99.90
5457;DHT22;2751;49.802;9.944;2022-08-19T01:07:41;21.20;99.90
5457;DHT22;2751;49.802;9.944;2022-08-19T01:10:12;21.20;99.90
5457;DHT22;2751;49.802;9.944;2022-08-19T01:12:39;21.10;99.90
5457;DHT22;2751;49.802;9.944;2022-08-19T01:15:09;21.10;99.90
5457;DHT22;2751;49.802;9.944;2022-08-19T01:17:38;21.00;99.90
5457;DHT22;2751;49.802;9.944;2022-08-19T01:20:10;21.00;99.90
5457;DHT22;2751;49.802;9.944;2022-08-19T01:22:42;21.00;99.90
5457;DHT22;2751;49.802;9.944;2022-08-19T01:25:10;21.00;99.90
5457;DHT22;2751;49.802;9.944;2022-08-19T01:27:38;21.00;99.90
5457;DHT22;2751;49.802;9.944;2022-08-19T01:30:06;20.90;99.90
5457;DHT22;2751;49.802;9.944;2022-08-19T01:32:34;20.90;99.90
5457;DHT22;2751;49.802;9.944;2022-08-19T01:35:02;20.90;99.90
5457;DHT22;2751;49.802;9.944;2022-08-19T01:37:40;20.90;99.90
5457;DHT22;2751;49.802;9.944;2022-08-19T01:40:10;20.80;99.90
5457;DHT22;2751;49.802;9.944;2022-08-19T01:42:37;20.80;99.90
5457;DHT22;2751;49.802;9.944;2022-08-19T01:45:04;20.80;99.90
5457;DHT22;2751;49.802;9.944;2022-08-19T01:47:33;20.80;99.90
5457;DHT22;2751;49.802;9.944;2022-08-19T01:50:00;20.80;99.90
5457;DHT22;2751;49.802;9.944;2022-08-19T01:52:27;20.80;99.90
5457;DHT22;2751;49.802;9.944;2022-08-19T01:54:54;20.80;99.90
5457;DHT22;2751;49.802;9.944;2022-08-19T01:57:23;20.90;99.90
5457;DHT22;2751;49.802;9.944;2022-08-19T01:59:50;20.80;99.90
5457;DHT22;2751;49.802;9.944;2022-08-19T02:02:17;20.80;99.90
5457;DHT22;2751;49.802;9.944;2022-08-19T02:04:44;20.80;99.90
5457;DHT22;2751;49.802;9.944;2022-08-19T02:07:11;20.80;99.90
5457;DHT22;2751;49.802;9.944;2022-08-19T02:09:38;20.80;99.90
5457;DHT22;2751;49.802;9.944;2022-08-19T02:12:06;20.80;99.90
5457;DHT22;2751;49.802;9.944;2022-08-19T02:14:35;20.70;99.90
5457;DHT22;2751;49.802;9.944;2022-08-19T02:17:03;20.70;99.90
5457;DHT22;2751;49.802;9.944;2022-08-19T02:19:30;20.70;99.90
5457;DHT22;2751;49.802;9.944;2022-08-19T02:21:58;20.70;99.90
5457;DHT22;2751;49.802;9.944;2022-08-19T02:24:25;20.70;99.90
5457;DHT22;2751;49.802;9.944;2022-08-19T02:26:53;20.60;99.90
5457;DHT22;2751;49.802;9.944;2022-08-19T02:29:20;20.60;99.90
5457;DHT22;2751;49.802;9.944;2022-08-19T02:31:48;20.50;99.90
5457;DHT22;2751;49.802;9.944;2022-08-19T02:34:16;20.50;99.90
5457;DHT22;2751;49.802;9.944;2022-08-19T02:36:43;20.50;99.90
5457;DHT22;2751;49.802;9.944;2022-08-19T02:39:10;20.40;99.90
5457;DHT22;2751;49.802;9.944;2022-08-19T02:41:36;20.50;99.90
5457;DHT22;2751;49.802;9.944;2022-08-19T02:44:03;20.50;99.90
5457;DHT22;2751;49.802;9.944;2022-08-19T02:46:32;20.40;99.90
5457;DHT22;2751;49.802;9.944;2022-08-19T02:49:03;20.40;99.90
5457;DHT22;2751;49.802;9.944;2022-08-19T02:51:32;20.40;99.90
5457;DHT22;2751;49.802;9.944;2022-08-19T02:53:59;20.40;99.90
5457;DHT22;2751;49.802;9.944;2022-08-19T02:56:27;20.40;99.90
5457;DHT22;2751;49.802;9.944;2022-08-19T02:58:54;20.40;99.90
5457;DHT22;2751;49.802;9.944;2022-08-19T03:01:22;20.40;99.90
5457;DHT22;2751;49.802;9.944;2022-08-19T03:03:49;20.40;99.90
5457;DHT22;2751;49.802;9.944;2022-08-19T03:06:18;20.40;99.90
5457;DHT22;2751;49.802;9.944;2022-08-19T03:08:47;20.40;99.90
5457;DHT22;2751;49.802;9.944;2022-08-19T03:11:16;20.40;99.90
5457;DHT22;2751;49.802;9.944;2022-08-19T03:13:44;20.40;99.90
5457;DHT22;2751;49.802;9.944;2022-08-19T03:16:12;20.40;99.90
5457;DHT22;2751;49.802;9.944;2022-08-19T03:18:39;20.40;99.90
5457;DHT22;2751;49.802;9.944;2022-08-19T03:21:06;20.40;99.90
5457;DHT22;2751;49.802;9.944;2022-08-19T03:23:35;20.40;99.90
5457;DHT22;2751;49.802;9.944;2022-08-19T03:26:04;20.40;99.90
5457;DHT22;2751;49.802;9.944;2022-08-19T03:28:32;20.40;99.90
5457;DHT22;2751;49.802;9.944;2022-08-19T03:31:01;20.40;99.90
5457;DHT22;2751;49.802;9.944;2022-08-19T03:33:29;20.40;99.90
5457;DHT22;2751;49.802;9.944;2022-08-19T03:36:06;20.40;99.90
5457;DHT22;2751;49.802;9.944;2022-08-19T03:38:37;20.30;99.90
5457;DHT22;2751;49.802;9.944;2022-08-19T03:41:05;20.40;99.90
5457;DHT22;2751;49.802;9.944;2022-08-19T03:43:35;20.30;99.90
5457;DHT22;2751;49.802;9.944;2022-08-19T03:46:04;20.30;99.90
5457;DHT22;2751;49.802;9.944;2022-08-19T03:48:31;20.30;99.90
5457;DHT22;2751;49.802;9.944;2022-08-19T03:50:59;20.30;99.90
5457;DHT22;2751;49.802;9.944;2022-08-19T03:53:26;20.30;99.90
5457;DHT22;2751;49.802;9.944;2022-08-19T03:55:55;20.30;99.90
5457;DHT22;2751;49.802;9.944;2022-08-19T03:58:22;20.20;99.90
5457;DHT22;2751;49.802;9.944;2022-08-19T04:00:49;20.20;99.90
5457;DHT22;2751;49.802;9.944;2022-08-19T04:03:16;20.20;99.90
5457;DHT22;2751;49.802;9.944;2022-08-19T04:05:45;20.20;99.90
5457;DHT22;2751;49.802;9.944;2022-08-19T04:08:12;20.20;99.90
5457;DHT22;2751;49.802;9.944;2022-08-19T04:10:44;20.20;99.90
5457;DHT22;2751;49.802;9.944;2022-08-19T04:13:12;20.20;99.90
5457;DHT22;2751;49.802;9.944;2022-08-19T04:15:40;20.10;99.90
5457;DHT22;2751;49.802;9.944;2022-08-19T04:18:08;20.10;99.90
5457;DHT22;2751;49.802;9.944;2022-08-19T04:20:40;20.10;99.90
5457;DHT22;2751;49.802;9.944;2022-08-19T04:23:07;20.10;99.90
5457;DHT22;2751;49.802;9.944;2022-08-19T04:25:38;20.10;99.90
5457;DHT22;2751;49.802;9.944;2022-08-19T04:28:06;20.10;99.90
5457;DHT22;2751;49.802;9.944;2022-08-19T04:30:41;20.00;99.90
5457;DHT22;2751;49.802;9.944;2022-08-19T04:33:09;20.00;99.90
5457;DHT22;2751;49.802;9.944;2022-08-19T04:35:38;20.00;99.90
5457;DHT22;2751;49.802;9.944;2022-08-19T04:38:05;20.00;99.90
5457;DHT22;2751;49.802;9.944;2022-08-19T04:40:32;20.00;99.90
5457;DHT22;2751;49.802;9.944;2022-08-19T04:43:16;20.10;99.90
5457;DHT22;2751;49.802;9.944;2022-08-19T04:45:45;20.10;99.90
5457;DHT22;2751;49.802;9.944;2022-08-19T04:48:12;20.20;99.90
5457;DHT22;2751;49.802;9.944;2022-08-19T04:50:42;20.30;99.90
5457;DHT22;2751;49.802;9.944;2022-08-19T04:53:10;20.30;99.90
5457;DHT22;2751;49.802;9.944;2022-08-19T04:55:40;20.40;99.90
5457;DHT22;2751;49.802;9.944;2022-08-19T04:58:07;20.40;99.90
5457;DHT22;2751;49.802;9.944;2022-08-19T05:00:36;20.40;99.90
5457;DHT22;2751;49.802;9.944;2022-08-19T05:03:05;20.40;99.90
5457;DHT22;2751;49.802;9.944;2022-08-19T05:05:32;20.40;99.90
5457;DHT22;2751;49.802;9.944;2022-08-19T05:07:59;20.40;99.90
5457;DHT22;2751;49.802;9.944;2022-08-19T05:10:26;20.50;99.90
5457;DHT22;2751;49.802;9.944;2022-08-19T05:12:53;20.50;99.90
5457;DHT22;2751;49.802;9.944;2022-08-19T05:15:20;20.60;99.90
5457;DHT22;2751;49.802;9.944;2022-08-19T05:17:47;20.60;99.90
5457;DHT22;2751;49.802;9.944;2022-08-19T05:20:29;20.70;99.90
5457;DHT22;2751;49.802;9.944;2022-08-19T05:23:13;20.80;99.90
5457;DHT22;2751;49.802;9.944;2022-08-19T05:25:41;20.80;99.90
5457;DHT22;2751;49.802;9.944;2022-08-19T05:28:08;20.90;99.90
5457;DHT22;2751;49.802;9.944;2022-08-19T05:30:35;20.90;99.90
5457;DHT22;2751;49.802;9.944;2022-08-19T05:33:02;20.90;99.90
5457;DHT22;2751;49.802;9.944;2022-08-19T05:35:30;21.00;99.90
5457;DHT22;2751;49.802;9.944;2022-08-19T05:37:57;21.00;99.90
5457;DHT22;2751;49.802;9.944;2022-08-19T05:40:24;21.10;99.90
5457;DHT22;2751;49.802;9.944;2022-08-19T05:42:51;21.20;99.90
5457;DHT22;2751;49.802;9.944;2022-08-19T05:45:19;21.20;99.90
5457;DHT22;2751;49.802;9.944;2022-08-19T05:47:47;21.30;99.90
5457;DHT22;2751;49.802;9.944;2022-08-19T05:50:14;21.30;99.90
5457;DHT22;2751;49.802;9.944;2022-08-19T05:52:44;21.30;99.90
5457;DHT22;2751;49.802;9.944;2022-08-19T05:55:11;21.40;99.90
5457;DHT22;2751;49.802;9.944;2022-08-19T05:57:38;21.40;99.90
5457;DHT22;2751;49.802;9.944;2022-08-19T06:00:07;21.50;99.90
5457;DHT22;2751;49.802;9.944;2022-08-19T06:02:36;21.50;99.90
5457;DHT22;2751;49.802;9.944;2022-08-19T06:05:03;21.50;99.90
5457;DHT22;2751;49.802;9.944;2022-08-19T06:07:32;21.50;99.90
5457;DHT22;2751;49.802;9.944;2022-08-19T06:10:00;21.50;99.90
5457;DHT22;2751;49.802;9.944;2022-08-19T06:12:28;21.50;99.90
5457;DHT22;2751;49.802;9.944;2022-08-19T06:14:57;21.60;99.90
5457;DHT22;2751;49.802;9.944;2022-08-19T06:17:24;21.70;99.90
5457;DHT22;2751;49.802;9.944;2022-08-19T06:19:52;21.80;99.90
5457;DHT22;2751;49.802;9.944;2022-08-19T06:22:19;21.80;99.90
5457;DHT22;2751;49.802;9.944;2022-08-19T06:24:46;21.90;99.90
5457;DHT22;2751;49.802;9.944;2022-08-19T06:27:14;21.90;99.90
5457;DHT22;2751;49.802;9.944;2022-08-19T06:29:41;22.00;99.90
5457;DHT22;2751;49.802;9.944;2022-08-19T06:32:08;22.10;99.90
5457;DHT22;2751;49.802;9.944;2022-08-19T06:34:36;22.10;99.90
5457;DHT22;2751;49.802;9.944;2022-08-19T06:37:03;22.20;99.90
5457;DHT22;2751;49.802;9.944;2022-08-19T06:39:33;22.30;99.90
5457;DHT22;2751;49.802;9.944;2022-08-19T06:42:02;22.40;99.90
5457;DHT22;2751;49.802;9.944;2022-08-19T06:44:35;22.50;99.90
5457;DHT22;2751;49.802;9.944;2022-08-19T06:47:04;22.60;99.90
5457;DHT22;2751;49.802;9.944;2022-08-19T06:49:31;22.70;99.90
5457;DHT22;2751;49.802;9.944;2022-08-19T06:51:59;22.80;99.90
5457;DHT22;2751;49.802;9.944;2022-08-19T06:54:27;22.80;99.90
5457;DHT22;2751;49.802;9.944;2022-08-19T06:56:55;22.90;99.90
5457;DHT22;2751;49.802;9.944;2022-08-19T06:59:23;22.80;99.90
5457;DHT22;2751;49.802;9.944;2022-08-19T07:01:55;22.70;99.90
5457;DHT22;2751;49.802;9.944;2022-08-19T07:04:24;22.70;99.90
5457;DHT22;2751;49.802;9.944;2022-08-19T07:06:57;22.70;99.90
5457;DHT22;2751;49.802;9.944;2022-08-19T07:09:25;22.70;99.90
5457;DHT22;2751;49.802;9.944;2022-08-19T07:11:53;22.80;99.90
5457;DHT22;2751;49.802;9.944;2022-08-19T07:14:24;22.90;99.90
5457;DHT22;2751;49.802;9.944;2022-08-19T07:16:52;22.90;99.90
5457;DHT22;2751;49.802;9.944;2022-08-19T07:19:23;22.90;99.90
5457;DHT22;2751;49.802;9.944;2022-08-19T07:21:50;22.90;99.90
5457;DHT22;2751;49.802;9.944;2022-08-19T07:24:18;23.10;99.90
5457;DHT22;2751;49.802;9.944;2022-08-19T07:26:46;23.20;99.90
5457;DHT22;2751;49.802;9.944;2022-08-19T07:29:13;23.30;99.90
5457;DHT22;2751;49.802;9.944;2022-08-19T07:31:40;23.40;99.90
5457;DHT22;2751;49.802;9.944;2022-08-19T07:34:09;23.20;99.90
5457;DHT22;2751;49.802;9.944;2022-08-19T07:36:41;23.20;99.90
5457;DHT22;2751;49.802;9.944;2022-08-19T07:39:11;23.10;99.90
5457;DHT22;2751;49.802;9.944;2022-08-19T07:41:39;23.10;99.90
5457;DHT22;2751;49.802;9.944;2022-08-19T07:44:07;23.10;99.90
5457;DHT22;2751;49.802;9.944;2022-08-19T07:46:36;23.20;99.90
5457;DHT22;2751;49.802;9.944;2022-08-19T07:49:06;23.20;99.90
5457;DHT22;2751;49.802;9.944;2022-08-19T07:51:34;23.20;99.90
5457;DHT22;2751;49.802;9.944;2022-08-19T07:54:03;23.20;99.90
5457;DHT22;2751;49.802;9.944;2022-08-19T07:56:30;23.30;99.90
5457;DHT22;2751;49.802;9.944;2022-08-19T07:58:57;23.40;99.90
5457;DHT22;2751;49.802;9.944;2022-08-19T08:01:26;23.30;99.90
5457;DHT22;2751;49.802;9.944;2022-08-19T08:03:55;23.40;99.90
5457;DHT22;2751;49.802;9.944;2022-08-19T08:06:39;23.40;99.90
5457;DHT22;2751;49.802;9.944;2022-08-19T08:09:27;23.50;99.90
5457;DHT22;2751;49.802;9.944;2022-08-19T08:11:57;23.60;99.90
5457;DHT22;2751;49.802;9.944;2022-08-19T08:14:27;23.70;99.90
5457;DHT22;2751;49.802;9.944;2022-08-19T08:16:54;23.90;99.90
5457;DHT22;2751;49.802;9.944;2022-08-19T08:19:23;24.20;99.90
5457;DHT22;2751;49.802;9.944;2022-08-19T08:21:52;24.50;99.90
5457;DHT22;2751;49.802;9.944;2022-08-19T08:24:19;24.70;99.90
5457;DHT22;2751;49.802;9.944;2022-08-19T08:26:48;24.90;99.90
5457;DHT22;2751;49.802;9.944;2022-08-19T08:29:15;25.30;99.90
5457;DHT22;2751;49.802;9.944;2022-08-19T08:31:43;25.50;99.90
5457;DHT22;2751;49.802;9.944;2022-08-19T08:34:11;25.50;99.90
5457;DHT22;2751;49.802;9.944;2022-08-19T08:36:39;25.60;99.90
5457;DHT22;2751;49.802;9.944;2022-08-19T08:39:08;25.70;99.90
5457;DHT22;2751;49.802;9.944;2022-08-19T08:41:39;25.50;99.90
5457;DHT22;2751;49.802;9.944;2022-08-19T08:44:13;25.50;99.90
5457;DHT22;2751;49.802;9.944;2022-08-19T08:46:44;25.40;99.90
5457;DHT22;2751;49.802;9.944;2022-08-19T08:49:20;25.20;99.90
5457;DHT22;2751;49.802;9.944;2022-08-19T08:51:54;25.10;99.90
5457;DHT22;2751;49.802;9.944;2022-08-19T08:54:28;25.30;99.90
5457;DHT22;2751;49.802;9.944;2022-08-19T08:56:56;25.50;99.90
5457;DHT22;2751;49.802;9.944;2022-08-19T08:59:29;25.90;99.90
5457;DHT22;2751;49.802;9.944;2022-08-19T09:01:58;26.00;99.90
5457;DHT22;2751;49.802;9.944;2022-08-19T09:04:25;26.10;99.90
5457;DHT22;2751;49.802;9.944;2022-08-19T09:06:56;26.00;99.90
5457;DHT22;2751;49.802;9.944;2022-08-19T09:09:33;25.90;99.90
5457;DHT22;2751;49.802;9.944;2022-08-19T09:12:06;25.50;99.90
5457;DHT22;2751;49.802;9.944;2022-08-19T09:14:43;25.40;99.90
5457;DHT22;2751;49.802;9.944;2022-08-19T09:17:12;25.50;99.90
5457;DHT22;2751;49.802;9.944;2022-08-19T09:19:50;25.50;99.90
5457;DHT22;2751;49.802;9.944;2022-08-19T09:22:17;25.60;99.90
5457;DHT22;2751;49.802;9.944;2022-08-19T09:24:47;25.50;99.90
5457;DHT22;2751;49.802;9.944;2022-08-19T09:27:14;25.70;99.90
5457;DHT22;2751;49.802;9.944;2022-08-19T09:29:43;25.70;99.90
5457;DHT22;2751;49.802;9.944;2022-08-19T09:32:10;25.50;99.90
5457;DHT22;2751;49.802;9.944;2022-08-19T09:34:37;25.40;99.90
5457;DHT22;2751;49.802;9.944;2022-08-19T09:37:04;25.30;99.90
5457;DHT22;2751;49.802;9.944;2022-08-19T09:39:31;25.30;99.90
5457;DHT22;2751;49.802;9.944;2022-08-19T09:41:59;25.30;99.90
5457;DHT22;2751;49.802;9.944;2022-08-19T09:44:25;25.50;99.90
5457;DHT22;2751;49.802;9.944;2022-08-19T09:46:54;25.60;99.90
5457;DHT22;2751;49.802;9.944;2022-08-19T09:49:21;25.60;99.90
5457;DHT22;2751;49.802;9.944;2022-08-19T09:51:50;25.60;99.90
5457;DHT22;2751;49.802;9.944;2022-08-19T09:54:22;25.60;99.90
5457;DHT22;2751;49.802;9.944;2022-08-19T09:56:49;25.70;99.90
5457;DHT22;2751;49.802;9.944;2022-08-19T09:59:16;25.70;99.90
5457;DHT22;2751;49.802;9.944;2022-08-19T10:01:43;25.60;99.90
5457;DHT22;2751;49.802;9.944;2022-08-19T10:04:12;25.60;99.90
5457;DHT22;2751;49.802;9.944;2022-08-19T10:06:39;25.50;99.90
5457;DHT22;2751;49.802;9.944;2022-08-19T10:09:08;25.40;99.90
5457;DHT22;2751;49.802;9.944;2022-08-19T10:11:39;25.20;99.90
5457;DHT22;2751;49.802;9.944;2022-08-19T10:14:07;25.30;99.90
5457;DHT22;2751;49.802;9.944;2022-08-19T10:16:36;25.30;99.90
5457;DHT22;2751;49.802;9.944;2022-08-19T10:19:04;25.50;99.90
5457;DHT22;2751;49.802;9.944;2022-08-19T10:21:33;25.80;99.90
5457;DHT22;2751;49.802;9.944;2022-08-19T10:24:02;26.10;99.90
5457;DHT22;2751;49.802;9.944;2022-08-19T10:26:32;26.30;99.90
5457;DHT22;2751;49.802;9.944;2022-08-19T10:29:00;26.10;99.90
5457;DHT22;2751;49.802;9.944;2022-08-19T10:31:28;26.30;99.90
5457;DHT22;2751;49.802;9.944;2022-08-19T10:33:57;26.70;99.90
5457;DHT22;2751;49.802;9.944;2022-08-19T10:36:26;27.10;99.90
5457;DHT22;2751;49.802;9.944;2022-08-19T10:38:57;27.30;99.90
5457;DHT22;2751;49.802;9.944;2022-08-19T10:41:26;27.40;99.90
5457;DHT22;2751;49.802;9.944;2022-08-19T10:43:54;27.50;99.90
5457;DHT22;2751;49.802;9.944;2022-08-19T10:46:23;27.60;99.90
5457;DHT22;2751;49.802;9.944;2022-08-19T10:48:51;27.60;99.90
5457;DHT22;2751;49.802;9.944;2022-08-19T10:51:19;27.70;99.90
5457;DHT22;2751;49.802;9.944;2022-08-19T10:54:05;27.40;99.90
5457;DHT22;2751;49.802;9.944;2022-08-19T10:56:34;27.70;99.90
5457;DHT22;2751;49.802;9.944;2022-08-19T10:59:20;27.30;99.70
5457;DHT22;2751;49.802;9.944;2022-08-19T11:01:48;27.30;99.90
5457;DHT22;2751;49.802;9.944;2022-08-19T11:04:16;27.50;99.10
5457;DHT22;2751;49.802;9.944;2022-08-19T11:06:44;27.90;97.80
5457;DHT22;2751;49.802;9.944;2022-08-19T11:09:15;28.40;96.50
5457;DHT22;2751;49.802;9.944;2022-08-19T11:11:42;28.00;96.00
5457;DHT22;2751;49.802;9.944;2022-08-19T11:14:11;28.00;95.90
5457;DHT22;2751;49.802;9.944;2022-08-19T11:16:40;28.00;95.50
5457;DHT22;2751;49.802;9.944;2022-08-19T11:19:08;28.00;94.80
5457;DHT22;2751;49.802;9.944;2022-08-19T11:21:38;28.00;94.10
5457;DHT22;2751;49.802;9.944;2022-08-19T11:24:07;27.90;94.40
5457;DHT22;2751;49.802;9.944;2022-08-19T11:26:37;28.10;94.30
5457;DHT22;2751;49.802;9.944;2022-08-19T11:29:05;27.80;93.80
5457;DHT22;2751;49.802;9.944;2022-08-19T11:31:37;27.40;94.30
5457;DHT22;2751;49.802;9.944;2022-08-19T11:34:08;27.10;94.90
5457;DHT22;2751;49.802;9.944;2022-08-19T11:36:37;26.70;95.70
5457;DHT22;2751;49.802;9.944;2022-08-19T11:39:06;26.60;96.20
5457;DHT22;2751;49.802;9.944;2022-08-19T11:41:33;26.70;96.30
5457;DHT22;2751;49.802;9.944;2022-08-19T11:44:02;26.90;96.00
5457;DHT22;2751;49.802;9.944;2022-08-19T11:46:30;26.70;95.70
5457;DHT22;2751;49.802;9.944;2022-08-19T11:48:58;26.70;95.70
5457;DHT22;2751;49.802;9.944;2022-08-19T11:51:27;26.90;95.30
5457;DHT22;2751;49.802;9.944;2022-08-19T11:53:55;26.90;95.60
5457;DHT22;2751;49.802;9.944;2022-08-19T11:56:23;27.20;94.90
5457;DHT22;2751;49.802;9.944;2022-08-19T11:58:51;27.60;94.20
5457;DHT22;2751;49.802;9.944;2022-08-19T12:01:21;27.80;92.80
5457;DHT22;2751;49.802;9.944;2022-08-19T12:03:50;28.30;91.40
5457;DHT22;2751;49.802;9.944;2022-08-19T12:06:21;28.50;90.60
5457;DHT22;2751;49.802;9.944;2022-08-19T12:08:51;28.80;88.70
5457;DHT22;2751;49.802;9.944;2022-08-19T12:11:19;29.10;85.90
5457;DHT22;2751;49.802;9.944;2022-08-19T12:13:46;29.20;86.20
5457;DHT22;2751;49.802;9.944;2022-08-19T12:16:15;29.00;84.90
5457;DHT22;2751;49.802;9.944;2022-08-19T12:18:44;28.70;85.10
5457;DHT22;2751;49.802;9.944;2022-08-19T12:21:12;28.50;88.00
5457;DHT22;2751;49.802;9.944;2022-08-19T12:23:39;28.30;86.60
5457;DHT22;2751;49.802;9.944;2022-08-19T12:26:06;28.00;88.90
5457;DHT22;2751;49.802;9.944;2022-08-19T12:28:34;28.00;86.80
5457;DHT22;2751;49.802;9.944;2022-08-19T12:31:01;28.00;86.60
5457;DHT22;2751;49.802;9.944;2022-08-19T12:33:28;27.80;87.80
5457;DHT22;2751;49.802;9.944;2022-08-19T12:36:00;27.80;88.40
5457;DHT22;2751;49.802;9.944;2022-08-19T12:38:28;27.90;87.70
5457;DHT22;2751;49.802;9.944;2022-08-19T12:40:55;27.90;86.10
5457;DHT22;2751;49.802;9.944;2022-08-19T12:43:22;27.90;85.70
5457;DHT22;2751;49.802;9.944;2022-08-19T12:45:49;27.90;85.70
5457;DHT22;2751;49.802;9.944;2022-08-19T12:48:16;28.00;86.40
5457;DHT22;2751;49.802;9.944;2022-08-19T12:50:44;27.90;85.60
5457;DHT22;2751;49.802;9.944;2022-08-19T12:53:14;27.80;86.00
5457;DHT22;2751;49.802;9.944;2022-08-19T12:55:42;27.70;86.80
5457;DHT22;2751;49.802;9.944;2022-08-19T12:58:09;27.70;87.30
5457;DHT22;2751;49.802;9.944;2022-08-19T13:00:38;27.80;86.40
5457;DHT22;2751;49.802;9.944;2022-08-19T13:03:06;27.80;85.90
5457;DHT22;2751;49.802;9.944;2022-08-19T13:05:34;27.80;85.40
5457;DHT22;2751;49.802;9.944;2022-08-19T13:08:01;28.00;84.00
5457;DHT22;2751;49.802;9.944;2022-08-19T13:10:31;27.90;83.60
5457;DHT22;2751;49.802;9.944;2022-08-19T13:13:01;27.90;82.90
5457;DHT22;2751;49.802;9.944;2022-08-19T13:15:28;27.60;83.60
5457;DHT22;2751;49.802;9.944;2022-08-19T13:17:57;27.50;85.00
5457;DHT22;2751;49.802;9.944;2022-08-19T13:20:25;27.40;84.50
5457;DHT22;2751;49.802;9.944;2022-08-19T13:22:52;27.50;85.20
5457;DHT22;2751;49.802;9.944;2022-08-19T13:25:19;27.70;84.40
5457;DHT22;2751;49.802;9.944;2022-08-19T13:27:49;27.70;83.10
5457;DHT22;2751;49.802;9.944;2022-08-19T13:30:18;27.90;82.00
5457;DHT22;2751;49.802;9.944;2022-08-19T13:33:03;28.30;82.50
5457;DHT22;2751;49.802;9.944;2022-08-19T13:35:42;28.70;79.30
5457;DHT22;2751;49.802;9.944;2022-08-19T13:38:10;29.10;78.50
5457;DHT22;2751;49.802;9.944;2022-08-19T13:40:37;29.40;76.20
5457;DHT22;2751;49.802;9.944;2022-08-19T13:43:06;29.70;74.70
5457;DHT22;2751;49.802;9.944;2022-08-19T13:45:33;29.80;73.40
5457;DHT22;2751;49.802;9.944;2022-08-19T13:48:02;29.80;73.10
5457;DHT22;2751;49.802;9.944;2022-08-19T13:50:32;29.90;72.50
5457;DHT22;2751;49.802;9.944;2022-08-19T13:53:00;29.50;71.90
5457;DHT22;2751;49.802;9.944;2022-08-19T13:55:28;29.10;72.60
5457;DHT22;2751;49.802;9.944;2022-08-19T13:57:57;29.20;72.10
5457;DHT22;2751;49.802;9.944;2022-08-19T14:00:26;29.20;72.80
5457;DHT22;2751;49.802;9.944;2022-08-19T14:02:55;29.30;71.40
5457;DHT22;2751;49.802;9.944;2022-08-19T14:05:24;29.10;71.60
5457;DHT22;2751;49.802;9.944;2022-08-19T14:07:51;28.90;72.60
5457;DHT22;2751;49.802;9.944;2022-08-19T14:10:19;28.90;73.10
5457;DHT22;2751;49.802;9.944;2022-08-19T14:12:47;29.00;72.80
5457;DHT22;2751;49.802;9.944;2022-08-19T14:15:14;28.70;71.80
5457;DHT22;2751;49.802;9.944;2022-08-19T14:17:44;28.60;72.50
5457;DHT22;2751;49.802;9.944;2022-08-19T14:20:12;28.60;71.90
5457;DHT22;2751;49.802;9.944;2022-08-19T14:22:42;28.40;71.80
5457;DHT22;2751;49.802;9.944;2022-08-19T14:25:17;28.40;72.10
5457;DHT22;2751;49.802;9.944;2022-08-19T14:27:46;28.40;73.00
5457;DHT22;2751;49.802;9.944;2022-08-19T14:30:15;28.50;73.00
5457;DHT22;2751;49.802;9.944;2022-08-19T14:32:43;28.30;72.70
5457;DHT22;2751;49.802;9.944;2022-08-19T14:35:12;28.40;75.00
5457;DHT22;2751;49.802;9.944;2022-08-19T14:37:40;28.30;72.80
5457;DHT22;2751;49.802;9.944;2022-08-19T14:40:08;28.30;77.10
5457;DHT22;2751;49.802;9.944;2022-08-19T14:42:35;28.30;75.80
5457;DHT22;2751;49.802;9.944;2022-08-19T14:45:03;28.00;74.90
5457;DHT22;2751;49.802;9.944;2022-08-19T14:47:31;28.20;82.30
5457;DHT22;2751;49.802;9.944;2022-08-19T14:50:00;28.30;74.50
5457;DHT22;2751;49.802;9.944;2022-08-19T14:52:27;28.30;76.90
5457;DHT22;2751;49.802;9.944;2022-08-19T14:54:54;28.20;80.90
5457;DHT22;2751;49.802;9.944;2022-08-19T14:57:21;28.10;72.80
5457;DHT22;2751;49.802;9.944;2022-08-19T14:59:48;28.10;71.90
5457;DHT22;2751;49.802;9.944;2022-08-19T15:02:14;28.00;72.50
5457;DHT22;2751;49.802;9.944;2022-08-19T15:04:41;27.90;73.80
5457;DHT22;2751;49.802;9.944;2022-08-19T15:07:10;27.80;74.70
5457;DHT22;2751;49.802;9.944;2022-08-19T15:09:37;27.80;72.80
5457;DHT22;2751;49.802;9.944;2022-08-19T15:12:05;27.90;72.80
5457;DHT22;2751;49.802;9.944;2022-08-19T15:14:32;27.70;74.10
5457;DHT22;2751;49.802;9.944;2022-08-19T15:17:01;27.70;73.10
5457;DHT22;2751;49.802;9.944;2022-08-19T15:19:28;27.60;73.30
5457;DHT22;2751;49.802;9.944;2022-08-19T15:21:55;27.70;74.10
5457;DHT22;2751;49.802;9.944;2022-08-19T15:24:24;27.50;74.10
5457;DHT22;2751;49.802;9.944;2022-08-19T15:26:51;27.40;74.10
5457;DHT22;2751;49.802;9.944;2022-08-19T15:29:19;27.30;74.70
5457;DHT22;2751;49.802;9.944;2022-08-19T15:31:46;27.10;75.00
5457;DHT22;2751;49.802;9.944;2022-08-19T15:34:12;27.10;75.00
5457;DHT22;2751;49.802;9.944;2022-08-19T15:36:39;27.00;74.90
5457;DHT22;2751;49.802;9.944;2022-08-19T15:39:06;27.00;75.10
5457;DHT22;2751;49.802;9.944;2022-08-19T15:41:36;26.90;75.60
5457;DHT22;2751;49.802;9.944;2022-08-19T15:44:06;26.90;75.40
5457;DHT22;2751;49.802;9.944;2022-08-19T15:46:36;26.90;75.80
5457;DHT22;2751;49.802;9.944;2022-08-19T15:49:04;26.90;75.80
5457;DHT22;2751;49.802;9.944;2022-08-19T15:51:33;26.90;76.20
5457;DHT22;2751;49.802;9.944;2022-08-19T15:54:01;26.80;77.00
5457;DHT22;2751;49.802;9.944;2022-08-19T15:56:28;26.80;76.10
5457;DHT22;2751;49.802;9.944;2022-08-19T15:59:10;26.70;77.30
5457;DHT22;2751;49.802;9.944;2022-08-19T16:01:55;26.70;76.80
5457;DHT22;2751;49.802;9.944;2022-08-19T16:04:39;26.60;77.40
5457;DHT22;2751;49.802;9.944;2022-08-19T16:07:23;26.60;77.30
5457;DHT22;2751;49.802;9.944;2022-08-19T16:09:50;26.50;78.10
5457;DHT22;2751;49.802;9.944;2022-08-19T16:12:17;26.50;78.20